Time;durP1;ratioP1;P1;durP2;ratioP2;P2;SDS_P1;SDS_P2;PMS_P1;PMS_P2;Temp;Humidity;BMP_temperature;BMP_pressure;BME280_temperature;BME280_humidity;BME280_pressure;Samples;Min_cycle;Max_cycle;Signal;HPM_P1;HPM_P2
2023/03/17 00:00:47;;;;;;;11.35;2.33;;;;;;;;;;4920719;29;20035;-70
2023/03/17 00:03:35;;;;;;;23.10;3.22;;;;;;;;;;4954126;29;20026;-70
2023/03/17 00:06:03;;;;;;;15.23;2.17;;;;;;;;;;4953771;29;20492;-70
2023/03/17 00:08:32;;;;;;;9.40;2.10;;;;;;;;;;4953787;29;20019;-70
2023/03/17 00:10:58;;;;;;;12.48;2.10;;;;;;;;;;4953475;29;20023;-70
2023/03/17 00:13:25;;;;;;;9.95;1.92;;;;;;;;;;4953691;29;20079;-70
2023/03/17 00:15:59;;;;;;;17.08;2.00;;;;;;;;;;4953649;29;20027;-70
2023/03/17 00:18:26;;;;;;;9.27;2.00;;;;;;;;;;4953936;29;20033;-70
2023/03/17 00:20:52;;;;;;;14.35;2.42;;;;;;;;;;4953443;29;20436;-69
2023/03/17 00:23:23;;;;;;;14.15;2.10;;;;;;;;;;4954031;28;20031;-69
2023/03/17 00:25:52;;;;;;;16.37;2.90;;;;;;;;;;4957316;29;20023;-70
2023/03/17 00:28:19;;;;;;;13.85;2.40;;;;;;;;;;4957368;29;20085;-70
2023/03/17 00:30:47;;;;;;;11.98;1.85;;;;;;;;;;4956938;29;20085;-70
2023/03/17 00:33:18;;;;;;;11.82;2.10;;;;;;;;;;4957112;29;20031;-70
2023/03/17 00:35:45;;;;;;;16.25;1.88;;;;;;;;;;4951670;29;20034;-70
2023/03/17 00:38:19;;;;;;;11.02;2.10;;;;;;;;;;4937755;29;20032;-70
2023/03/17 00:40:45;;;;;;;12.55;2.13;;;;;;;;;;4937759;29;20038;-70
2023/03/17 00:43:13;;;;;;;12.35;2.40;;;;;;;;;;4938115;29;20034;-70
2023/03/17 00:45:39;;;;;;;19.88;2.50;;;;;;;;;;4937600;29;20024;-70
2023/03/17 00:48:12;;;;;;;9.43;2.08;;;;;;;;;;4938144;29;20024;-71
2023/03/17 00:50:41;;;;;;;17.33;2.45;;;;;;;;;;4937650;29;20055;-70
2023/03/17 00:53:12;;;;;;;12.27;1.98;;;;;;;;;;4937448;29;20027;-71
2023/03/17 00:55:39;;;;;;;8.88;1.98;;;;;;;;;;4937408;29;20046;-70
2023/03/17 00:58:11;;;;;;;13.98;2.17;;;;;;;;;;4937586;29;20032;-70
2023/03/17 01:00:37;;;;;;;13.55;2.25;;;;;;;;;;4937577;29;20404;-70
2023/03/17 01:03:03;;;;;;;15.13;2.67;;;;;;;;;;4937784;29;20416;-70
2023/03/17 01:05:30;;;;;;;15.40;2.10;;;;;;;;;;4937624;29;20027;-70
2023/03/17 01:07:57;;;;;;;9.63;1.70;;;;;;;;;;4937126;29;20030;-70
2023/03/17 01:10:28;;;;;;;8.75;1.95;;;;;;;;;;4929475;29;20032;-70
2023/03/17 01:12:56;;;;;;;12.23;2.00;;;;;;;;;;4937087;29;20030;-70
2023/03/17 01:15:24;;;;;;;16.83;2.58;;;;;;;;;;4937243;29;20039;-70
2023/03/17 01:17:51;;;;;;;13.68;2.00;;;;;;;;;;4937531;29;20027;-69
2023/03/17 01:20:21;;;;;;;8.38;1.92;;;;;;;;;;4937004;29;20392;-70
2023/03/17 01:22:48;;;;;;;15.73;2.00;;;;;;;;;;4937205;29;20046;-70
2023/03/17 01:25:15;;;;;;;12.30;2.50;;;;;;;;;;4936844;29;20026;-70
2023/03/17 01:27:41;;;;;;;14.55;2.20;;;;;;;;;;4936987;29;20400;-70
2023/03/17 01:30:13;;;;;;;15.95;2.45;;;;;;;;;;4941601;29;20019;-70
2023/03/17 01:32:39;;;;;;;10.63;2.30;;;;;;;;;;4956150;29;20035;-70
2023/03/17 01:35:06;;;;;;;16.00;2.05;;;;;;;;;;4955837;28;20027;-70
2023/03/17 01:37:32;;;;;;;12.45;2.08;;;;;;;;;;4955730;29;20019;-70
2023/03/17 01:39:58;;;;;;;14.00;2.20;;;;;;;;;;4956168;29;20039;-70
2023/03/17 01:42:25;;;;;;;12.60;2.20;;;;;;;;;;4948221;29;20575;-70
2023/03/17 01:45:04;;;;;;;14.23;1.92;;;;;;;;;;4956240;29;20028;-70
2023/03/17 01:47:31;;;;;;;10.63;2.47;;;;;;;;;;4938720;29;20034;-70
2023/03/17 01:50:05;;;;;;;14.13;2.00;;;;;;;;;;4955804;29;20031;-69
2023/03/17 01:52:33;;;;;;;14.85;2.70;;;;;;;;;;4955632;29;20492;-70
2023/03/17 01:54:59;;;;;;;11.15;1.95;;;;;;;;;;4955491;29;20187;-70
2023/03/17 01:57:38;;;;;;;11.60;2.28;;;;;;;;;;4955910;29;20033;-70
2023/03/17 02:00:04;;;;;;;11.05;2.78;;;;;;;;;;4955701;29;20027;-70
2023/03/17 02:02:33;;;;;;;12.18;2.25;;;;;;;;;;4955961;29;20110;-70
2023/03/17 02:05:01;;;;;;;21.58;2.17;;;;;;;;;;4955235;29;20076;-70
2023/03/17 02:07:28;;;;;;;13.40;2.17;;;;;;;;;;4955483;29;20392;-70
2023/03/17 02:09:55;;;;;;;12.30;2.05;;;;;;;;;;4955419;29;20391;-70
2023/03/17 02:12:23;;;;;;;18.25;2.53;;;;;;;;;;4955447;29;20029;-70
2023/03/17 02:14:50;;;;;;;17.05;2.88;;;;;;;;;;4955123;29;20024;-70
2023/03/17 02:17:20;;;;;;;14.73;2.60;;;;;;;;;;4955675;29;20062;-70
2023/03/17 02:19:47;;;;;;;13.57;2.20;;;;;;;;;;4954997;29;20492;-70
2023/03/17 02:22:14;;;;;;;14.32;2.28;;;;;;;;;;4955149;29;20488;-70
2023/03/17 02:24:43;;;;;;;16.35;2.30;;;;;;;;;;4955386;29;20023;-70
2023/03/17 02:27:13;;;;;;;13.68;2.80;;;;;;;;;;4955124;29;20033;-70
2023/03/17 02:29:40;;;;;;;10.82;2.28;;;;;;;;;;4954923;29;20032;-70
2023/03/17 02:32:08;;;;;;;15.07;2.17;;;;;;;;;;4954736;29;20055;-70
2023/03/17 02:34:35;;;;;;;14.88;2.20;;;;;;;;;;4954878;29;20031;-70
2023/03/17 02:37:01;;;;;;;10.77;2.03;;;;;;;;;;4955007;29;20023;-70
2023/03/17 02:39:28;;;;;;;17.08;2.58;;;;;;;;;;4954875;29;20038;-70
2023/03/17 02:41:54;;;;;;;17.05;2.47;;;;;;;;;;4954768;29;20031;-70
2023/03/17 02:44:21;;;;;;;11.60;2.10;;;;;;;;;;4954680;29;20477;-70
2023/03/17 02:46:47;;;;;;;17.42;2.15;;;;;;;;;;4953999;28;20027;-70
2023/03/17 02:49:14;;;;;;;12.63;2.40;;;;;;;;;;4954559;29;20391;-69
2023/03/17 02:51:40;;;;;;;13.73;2.45;;;;;;;;;;4954775;29;20031;-70
2023/03/17 02:54:06;;;;;;;14.50;2.30;;;;;;;;;;4954654;29;20031;-70
2023/03/17 02:56:33;;;;;;;12.55;1.80;;;;;;;;;;4954561;29;20488;-70
2023/03/17 02:58:59;;;;;;;15.02;2.40;;;;;;;;;;4937442;29;20028;-69
2023/03/17 03:01:26;;;;;;;16.02;2.70;;;;;;;;;;4954513;29;20043;-69
2023/03/17 03:03:52;;;;;;;13.20;2.13;;;;;;;;;;4954603;29;20062;-69
2023/03/17 03:06:18;;;;;;;11.27;2.25;;;;;;;;;;4954380;29;20074;-69
2023/03/17 03:08:45;;;;;;;11.15;1.83;;;;;;;;;;4954485;29;20024;-70
2023/03/17 03:11:12;;;;;;;10.10;1.80;;;;;;;;;;4954430;29;20023;-71
2023/03/17 03:13:38;;;;;;;13.40;2.13;;;;;;;;;;4954356;29;20395;-70
2023/03/17 03:16:05;;;;;;;11.57;2.20;;;;;;;;;;4954543;29;20023;-70
2023/03/17 03:18:31;;;;;;;12.10;2.13;;;;;;;;;;4954092;29;20483;-69
2023/03/17 03:20:58;;;;;;;15.48;2.50;;;;;;;;;;4954148;29;20405;-70
2023/03/17 03:23:24;;;;;;;15.40;2.63;;;;;;;;;;4954075;29;20384;-70
2023/03/17 03:25:50;;;;;;;20.90;3.45;;;;;;;;;;4954139;29;20408;-70
2023/03/17 03:28:17;;;;;;;19.42;2.58;;;;;;;;;;4954121;29;20031;-70
2023/03/17 03:30:46;;;;;;;14.02;2.38;;;;;;;;;;4947289;29;20413;-71
2023/03/17 03:33:16;;;;;;;12.85;2.33;;;;;;;;;;4934828;29;20016;-70
2023/03/17 03:35:43;;;;;;;16.98;2.28;;;;;;;;;;4935167;29;20314;-70
2023/03/17 03:38:10;;;;;;;13.35;2.28;;;;;;;;;;4934847;29;20032;-70
2023/03/17 03:40:36;;;;;;;14.57;1.90;;;;;;;;;;4934892;29;20045;-70
2023/03/17 03:43:03;;;;;;;13.38;1.88;;;;;;;;;;4934899;29;20024;-70
2023/03/17 03:45:30;;;;;;;10.45;2.33;;;;;;;;;;4934716;29;20024;-70
2023/03/17 03:47:56;;;;;;;10.02;1.73;;;;;;;;;;4934677;29;20027;-70
2023/03/17 03:50:22;;;;;;;14.15;1.90;;;;;;;;;;4934730;29;20036;-70
2023/03/17 03:52:49;;;;;;;13.80;1.75;;;;;;;;;;4934984;29;20030;-70
2023/03/17 03:55:15;;;;;;;12.90;2.25;;;;;;;;;;4933644;29;20036;-70
2023/03/17 03:57:42;;;;;;;10.57;2.22;;;;;;;;;;4934688;29;20035;-70
2023/03/17 04:00:10;;;;;;;9.02;2.20;;;;;;;;;;4938669;29;20399;-70
2023/03/17 04:02:36;;;;;;;13.00;2.30;;;;;;;;;;4938705;29;20027;-70
2023/03/17 04:05:03;;;;;;;12.55;2.35;;;;;;;;;;4938640;29;20039;-70
2023/03/17 04:07:29;;;;;;;14.60;2.28;;;;;;;;;;4938471;29;20023;-70
2023/03/17 04:09:55;;;;;;;15.13;1.70;;;;;;;;;;4938704;29;20020;-69
2023/03/17 04:12:22;;;;;;;10.18;1.92;;;;;;;;;;4938411;29;20051;-70
2023/03/17 04:14:48;;;;;;;8.20;1.60;;;;;;;;;;4938466;29;20020;-70
2023/03/17 04:17:14;;;;;;;11.25;2.03;;;;;;;;;;4938233;29;20110;-70
2023/03/17 04:19:41;;;;;;;9.57;1.88;;;;;;;;;;4938242;29;20438;-70
2023/03/17 04:22:07;;;;;;;10.90;2.00;;;;;;;;;;4938120;29;20039;-70
2023/03/17 04:24:34;;;;;;;7.90;1.98;;;;;;;;;;4938190;29;20070;-69
2023/03/17 04:27:01;;;;;;;7.03;1.88;;;;;;;;;;4938378;29;20027;-70
2023/03/17 04:29:27;;;;;;;14.23;1.92;;;;;;;;;;4937938;29;20019;-70
2023/03/17 04:31:53;;;;;;;10.95;1.98;;;;;;;;;;4953815;29;20110;-70
2023/03/17 04:34:20;;;;;;;11.32;1.70;;;;;;;;;;4957156;29;20031;-70
2023/03/17 04:36:47;;;;;;;10.30;1.55;;;;;;;;;;4957362;29;20039;-70
2023/03/17 04:39:14;;;;;;;3.38;1.38;;;;;;;;;;4957117;29;20023;-70
2023/03/17 04:41:40;;;;;;;8.10;1.88;;;;;;;;;;4956854;29;20061;-70
2023/03/17 04:44:07;;;;;;;9.52;1.60;;;;;;;;;;4957056;29;20043;-70
2023/03/17 04:46:34;;;;;;;7.55;1.50;;;;;;;;;;4956820;29;20140;-70
2023/03/17 04:49:00;;;;;;;9.55;1.77;;;;;;;;;;4957199;29;20019;-70
2023/03/17 04:51:27;;;;;;;11.60;2.22;;;;;;;;;;4956822;29;20496;-69
2023/03/17 04:53:53;;;;;;;13.10;2.45;;;;;;;;;;4956952;29;20016;-70
2023/03/17 04:56:20;;;;;;;8.32;1.60;;;;;;;;;;4956751;29;20031;-70
2023/03/17 04:58:47;;;;;;;11.57;2.03;;;;;;;;;;4956641;29;20396;-69
2023/03/17 05:01:13;;;;;;;11.60;2.30;;;;;;;;;;4956542;29;20542;-70
2023/03/17 05:03:39;;;;;;;13.38;1.88;;;;;;;;;;4939513;29;20496;-70
2023/03/17 05:06:06;;;;;;;12.90;1.90;;;;;;;;;;4956441;29;20041;-71
2023/03/17 05:08:32;;;;;;;11.10;2.00;;;;;;;;;;4956847;29;20050;-70
2023/03/17 05:10:58;;;;;;;9.48;1.88;;;;;;;;;;4956070;29;20494;-70
2023/03/17 05:13:26;;;;;;;13.95;2.60;;;;;;;;;;4956337;29;20411;-70
2023/03/17 05:15:53;;;;;;;7.88;1.60;;;;;;;;;;4956330;29;20039;-70
2023/03/17 05:18:21;;;;;;;4.47;1.45;;;;;;;;;;4956325;29;20031;-70
2023/03/17 05:20:47;;;;;;;5.40;1.50;;;;;;;;;;4956063;29;20046;-70
2023/03/17 05:23:14;;;;;;;8.43;1.77;;;;;;;;;;4956450;29;20023;-70
2023/03/17 05:25:40;;;;;;;11.38;1.77;;;;;;;;;;4956159;29;20097;-70
2023/03/17 05:28:08;;;;;;;7.15;1.55;;;;;;;;;;4955177;29;20039;-70
2023/03/17 05:30:35;;;;;;;11.27;1.80;;;;;;;;;;4956029;29;20105;-70
2023/03/17 05:33:02;;;;;;;9.05;2.10;;;;;;;;;;4956197;29;20039;-69
2023/03/17 05:35:28;;;;;;;12.45;1.75;;;;;;;;;;4956044;29;20037;-70
2023/03/17 05:37:55;;;;;;;5.57;1.25;;;;;;;;;;4939186;29;20031;-70
2023/03/17 05:40:22;;;;;;;5.95;1.27;;;;;;;;;;4956023;29;20031;-70
2023/03/17 05:42:49;;;;;;;5.38;1.25;;;;;;;;;;4955812;29;20023;-70
2023/03/17 05:45:16;;;;;;;7.40;1.50;;;;;;;;;;4956253;29;20026;-70
2023/03/17 05:47:42;;;;;;;5.45;1.20;;;;;;;;;;4956005;29;20514;-70
2023/03/17 05:50:10;;;;;;;4.43;1.10;;;;;;;;;;4956027;29;20030;-70
2023/03/17 05:52:36;;;;;;;7.68;1.50;;;;;;;;;;4955829;29;20031;-70
2023/03/17 05:55:03;;;;;;;8.32;2.70;;;;;;;;;;4955847;29;20046;-70
2023/03/17 05:57:30;;;;;;;3.42;1.15;;;;;;;;;;4955749;29;20096;-70
2023/03/17 05:59:56;;;;;;;4.03;1.05;;;;;;;;;;4955900;29;20019;-70
2023/03/17 06:02:23;;;;;;;6.13;1.13;;;;;;;;;;4955519;29;20518;-70
2023/03/17 06:04:49;;;;;;;5.55;1.17;;;;;;;;;;4955555;29;20032;-70
2023/03/17 06:07:16;;;;;;;5.90;1.27;;;;;;;;;;4955692;29;20031;-70
2023/03/17 06:09:42;;;;;;;7.32;1.60;;;;;;;;;;4955698;29;20031;-70
2023/03/17 06:12:09;;;;;;;8.20;1.90;;;;;;;;;;4955570;29;20035;-70
2023/03/17 06:14:35;;;;;;;8.07;1.48;;;;;;;;;;4955580;29;20027;-70
2023/03/17 06:17:01;;;;;;;7.68;1.80;;;;;;;;;;4955556;29;20025;-70
2023/03/17 06:19:28;;;;;;;6.00;1.30;;;;;;;;;;4955656;29;20027;-70
2023/03/17 06:21:54;;;;;;;7.30;1.23;;;;;;;;;;4954300;28;20035;-70
2023/03/17 06:24:21;;;;;;;3.47;0.95;;;;;;;;;;4955172;29;20025;-70
2023/03/17 06:26:47;;;;;;;4.53;1.08;;;;;;;;;;4953918;29;20041;-70
2023/03/17 06:29:13;;;;;;;2.08;0.60;;;;;;;;;;4955465;29;20042;-70
2023/03/17 06:31:41;;;;;;;3.42;0.77;;;;;;;;;;4955263;29;20073;-70
2023/03/17 06:34:07;;;;;;;2.95;0.55;;;;;;;;;;4954982;29;20428;-70
2023/03/17 06:36:33;;;;;;;1.98;0.70;;;;;;;;;;4955178;29;20035;-69
2023/03/17 06:39:00;;;;;;;1.92;0.63;;;;;;;;;;4954749;29;20031;-69
2023/03/17 06:41:27;;;;;;;2.90;0.80;;;;;;;;;;4954683;29;20031;-70
2023/03/17 06:43:53;;;;;;;5.47;1.45;;;;;;;;;;4954899;29;20038;-69
2023/03/17 06:46:19;;;;;;;1.35;0.70;;;;;;;;;;4955032;29;20035;-69
2023/03/17 06:48:46;;;;;;;5.40;1.00;;;;;;;;;;4954790;29;20028;-69
2023/03/17 06:51:12;;;;;;;9.80;1.08;;;;;;;;;;4954765;29;20488;-69
2023/03/17 06:53:39;;;;;;;8.68;1.30;;;;;;;;;;4954882;29;20034;-69
2023/03/17 06:56:05;;;;;;;5.68;1.45;;;;;;;;;;4953329;29;20033;-69
2023/03/17 06:58:32;;;;;;;6.40;1.33;;;;;;;;;;4954904;29;20038;-69
2023/03/17 07:00:59;;;;;;;5.72;1.08;;;;;;;;;;4954675;29;20037;-69
2023/03/17 07:03:26;;;;;;;3.83;1.10;;;;;;;;;;4954393;29;20038;-70
2023/03/17 07:05:53;;;;;;;10.27;1.90;;;;;;;;;;4954492;29;20485;-70
2023/03/17 07:08:20;;;;;;;8.27;1.50;;;;;;;;;;4954723;29;20230;-69
2023/03/17 07:10:47;;;;;;;4.45;1.35;;;;;;;;;;4943434;29;20027;-70
2023/03/17 07:13:14;;;;;;;10.63;1.73;;;;;;;;;;4929609;29;20510;-70
2023/03/17 07:15:41;;;;;;;6.68;1.20;;;;;;;;;;4934756;29;20034;-70
2023/03/17 07:18:08;;;;;;;6.38;1.00;;;;;;;;;;4935125;29;20485;-70
2023/03/17 07:20:34;;;;;;;2.63;1.10;;;;;;;;;;4934551;29;20043;-70
2023/03/17 07:23:00;;;;;;;15.68;1.63;;;;;;;;;;4933887;29;20097;-70
2023/03/17 07:25:27;;;;;;;7.03;1.35;;;;;;;;;;4934812;29;20038;-70
2023/03/17 07:27:53;;;;;;;5.68;1.05;;;;;;;;;;4933885;29;20477;-70
2023/03/17 07:30:20;;;;;;;7.90;1.70;;;;;;;;;;4930726;29;20083;-69
2023/03/17 07:32:46;;;;;;;6.68;1.10;;;;;;;;;;4933798;29;20042;-69
2023/03/17 07:35:14;;;;;;;6.15;1.52;;;;;;;;;;4934084;29;20038;-69
2023/03/17 07:37:40;;;;;;;5.63;1.02;;;;;;;;;;4936134;29;20176;-70
2023/03/17 07:40:08;;;;;;;10.80;1.77;;;;;;;;;;4919236;29;20114;-70
2023/03/17 07:42:34;;;;;;;8.35;1.13;;;;;;;;;;4915319;29;20396;-69
2023/03/17 07:45:01;;;;;;;6.03;1.08;;;;;;;;;;4933741;29;20027;-70
2023/03/17 07:47:28;;;;;;;3.35;0.98;;;;;;;;;;4938789;29;20032;-69
2023/03/17 07:49:54;;;;;;;3.40;0.85;;;;;;;;;;4953336;29;20042;-70
2023/03/17 07:52:20;;;;;;;8.20;0.90;;;;;;;;;;4936882;29;20492;-70
2023/03/17 07:54:47;;;;;;;8.60;1.02;;;;;;;;;;4933522;29;20024;-69
2023/03/17 07:57:15;;;;;;;4.57;1.10;;;;;;;;;;4944873;29;20031;-69
2023/03/17 07:59:41;;;;;;;8.20;1.25;;;;;;;;;;4952246;29;20024;-69
2023/03/17 08:02:14;;;;;;;8.63;1.20;;;;;;;;;;4948264;29;20039;-70
2023/03/17 08:04:41;;;;;;;4.60;1.05;;;;;;;;;;4953400;29;20031;-70
2023/03/17 08:07:07;;;;;;;6.95;1.17;;;;;;;;;;4940257;29;20042;-70
2023/03/17 08:09:33;;;;;;;7.60;1.60;;;;;;;;;;4929091;29;20039;-69
2023/03/17 08:12:00;;;;;;;6.28;1.30;;;;;;;;;;4937772;29;20030;-69
2023/03/17 08:14:26;;;;;;;6.38;1.70;;;;;;;;;;4940554;29;20031;-69
2023/03/17 08:16:52;;;;;;;5.15;1.13;;;;;;;;;;4943984;29;20065;-69
2023/03/17 08:19:20;;;;;;;9.10;1.48;;;;;;;;;;4951113;29;20086;-70
2023/03/17 08:21:47;;;;;;;10.90;2.00;;;;;;;;;;4937941;29;20507;-70
2023/03/17 08:24:14;;;;;;;14.15;1.95;;;;;;;;;;4935935;29;20036;-69
2023/03/17 08:26:40;;;;;;;8.60;1.50;;;;;;;;;;4945496;29;20396;-70
2023/03/17 08:29:06;;;;;;;14.48;1.92;;;;;;;;;;4933173;29;20028;-70
2023/03/17 08:31:33;;;;;;;10.50;1.50;;;;;;;;;;4947866;29;20483;-70
2023/03/17 08:34:01;;;;;;;5.97;1.15;;;;;;;;;;4952274;29;20024;-69
2023/03/17 08:36:28;;;;;;;5.95;1.30;;;;;;;;;;4942047;29;20038;-69
2023/03/17 08:38:55;;;;;;;9.77;1.40;;;;;;;;;;4941710;29;20485;-70
2023/03/17 08:41:23;;;;;;;11.38;1.63;;;;;;;;;;4944210;29;20051;-70
2023/03/17 08:43:50;;;;;;;7.75;1.70;;;;;;;;;;4951289;28;20027;-70
2023/03/17 08:46:16;;;;;;;6.95;1.70;;;;;;;;;;4954381;29;20468;-69
2023/03/17 08:48:44;;;;;;;6.88;0.95;;;;;;;;;;4953242;29;20035;-69
2023/03/17 08:51:10;;;;;;;9.15;1.58;;;;;;;;;;4946391;29;20039;-68
2023/03/17 08:53:36;;;;;;;7.53;0.90;;;;;;;;;;4940957;29;20077;-69
2023/03/17 08:56:03;;;;;;;4.95;1.63;;;;;;;;;;4955224;29;20403;-69
2023/03/17 08:58:30;;;;;;;9.00;1.80;;;;;;;;;;4954595;29;20500;-70
2023/03/17 09:01:01;;;;;;;8.05;1.60;;;;;;;;;;4955612;29;20038;-69
2023/03/17 09:03:28;;;;;;;6.15;1.40;;;;;;;;;;4947692;29;20043;-70
2023/03/17 09:05:54;;;;;;;9.48;1.45;;;;;;;;;;4936082;29;20028;-69
2023/03/17 09:08:21;;;;;;;4.93;1.17;;;;;;;;;;4936392;29;20031;-69
2023/03/17 09:10:48;;;;;;;6.43;1.30;;;;;;;;;;4947168;29;20042;-68
2023/03/17 09:13:15;;;;;;;8.85;1.33;;;;;;;;;;4936258;29;20515;-70
2023/03/17 09:15:41;;;;;;;11.10;2.67;;;;;;;;;;4936048;29;20022;-70
2023/03/17 09:18:09;;;;;;;5.10;1.20;;;;;;;;;;4936753;29;20086;-70
2023/03/17 09:20:36;;;;;;;7.55;1.20;;;;;;;;;;4945782;29;20051;-70
2023/03/17 09:23:06;;;;;;;7.57;1.40;;;;;;;;;;4947742;29;20019;-70
2023/03/17 09:25:36;;;;;;;8.85;1.73;;;;;;;;;;4926921;29;20078;-70
2023/03/17 09:28:03;;;;;;;9.07;1.38;;;;;;;;;;4954979;29;20487;-70
2023/03/17 09:30:31;;;;;;;7.70;1.50;;;;;;;;;;4948223;29;20049;-70
2023/03/17 09:32:58;;;;;;;7.65;1.33;;;;;;;;;;4954607;29;20035;-70
2023/03/17 09:35:25;;;;;;;7.93;1.55;;;;;;;;;;4950972;29;20399;-70
2023/03/17 09:37:51;;;;;;;6.75;1.63;;;;;;;;;;4954420;29;20511;-70
2023/03/17 09:40:19;;;;;;;6.55;1.85;;;;;;;;;;4939088;29;20024;-70
2023/03/17 09:43:06;;;;;;;9.73;2.03;;;;;;;;;;4933197;29;20722;-69
2023/03/17 09:45:34;;;;;;;6.55;1.30;;;;;;;;;;4935548;29;20098;-70
2023/03/17 09:48:16;;;;;;;7.72;1.45;;;;;;;;;;4935938;29;20034;-70
2023/03/17 09:50:45;;;;;;;8.90;1.40;;;;;;;;;;4954483;29;20027;-70
2023/03/17 09:53:19;;;;;;;8.95;1.77;;;;;;;;;;4954603;29;20034;-69
2023/03/17 09:55:47;;;;;;;9.65;1.85;;;;;;;;;;4954465;28;20403;-70
2023/03/17 09:58:14;;;;;;;8.38;1.73;;;;;;;;;;4954846;29;20041;-70
2023/03/17 10:00:40;;;;;;;14.70;2.10;;;;;;;;;;4946762;29;20028;-69
2023/03/17 10:03:10;;;;;;;7.57;1.77;;;;;;;;;;4935493;29;20032;-70
2023/03/17 10:05:37;;;;;;;11.98;1.63;;;;;;;;;;4954094;29;20027;-70
2023/03/17 10:08:16;;;;;;;12.43;1.73;;;;;;;;;;4935285;29;20038;-70
2023/03/17 10:10:47;;;;;;;9.18;1.55;;;;;;;;;;4935131;29;20038;-70
2023/03/17 10:13:26;;;;;;;9.48;1.58;;;;;;;;;;4934923;29;20422;-69
2023/03/17 10:15:52;;;;;;;6.25;1.52;;;;;;;;;;4935280;29;20036;-69
2023/03/17 10:18:23;;;;;;;6.45;1.30;;;;;;;;;;4934689;29;20035;-70
2023/03/17 10:20:55;;;;;;;9.40;1.50;;;;;;;;;;4934262;29;20070;-70
2023/03/17 10:23:26;;;;;;;6.53;1.50;;;;;;;;;;4929626;29;20028;-69
2023/03/17 10:25:52;;;;;;;12.07;1.47;;;;;;;;;;4916181;29;20038;-70
2023/03/17 10:28:28;;;;;;;6.68;1.67;;;;;;;;;;4916988;29;20315;-69
2023/03/17 10:31:13;;;;;;;11.90;1.92;;;;;;;;;;4945392;29;20054;-69
2023/03/17 10:33:40;;;;;;;6.20;1.40;;;;;;;;;;4942749;29;20031;-70
2023/03/17 10:36:08;;;;;;;6.68;1.40;;;;;;;;;;4933811;29;20028;-70
2023/03/17 10:38:35;;;;;;;10.15;2.47;;;;;;;;;;4933619;29;20031;-70
2023/03/17 10:41:14;;;;;;;9.13;1.70;;;;;;;;;;4934277;29;20074;-70
2023/03/17 10:43:45;;;;;;;5.50;1.67;;;;;;;;;;4943198;29;20440;-70
2023/03/17 10:46:30;;;;;;;13.15;1.88;;;;;;;;;;4934487;29;20035;-70
2023/03/17 10:49:01;;;;;;;11.18;1.70;;;;;;;;;;4932374;29;20039;-70
2023/03/17 10:51:31;;;;;;;10.68;2.35;;;;;;;;;;4934149;29;20031;-70
2023/03/17 10:54:16;;;;;;;19.37;2.30;;;;;;;;;;4934174;29;20024;-69
2023/03/17 10:56:45;;;;;;;12.45;1.90;;;;;;;;;;4934128;29;20274;-70
2023/03/17 10:59:15;;;;;;;14.43;2.17;;;;;;;;;;4934214;29;20515;-70
2023/03/17 11:01:46;;;;;;;14.52;2.58;;;;;;;;;;4933561;29;20097;-70
2023/03/17 11:04:20;;;;;;;10.48;1.77;;;;;;;;;;4933449;29;20027;-70
2023/03/17 11:06:51;;;;;;;11.70;2.17;;;;;;;;;;4933832;29;20473;-70
2023/03/17 11:09:20;;;;;;;14.23;2.00;;;;;;;;;;4933996;29;20030;-69
2023/03/17 11:11:48;;;;;;;9.60;1.90;;;;;;;;;;4933931;29;20026;-70
2023/03/17 11:14:17;;;;;;;12.30;1.85;;;;;;;;;;4933742;29;20039;-70
2023/03/17 11:17:04;;;;;;;10.55;2.17;;;;;;;;;;4933737;29;20508;-70
2023/03/17 11:19:30;;;;;;;14.55;1.75;;;;;;;;;;4933623;29;20038;-69
2023/03/17 11:22:15;;;;;;;13.05;2.22;;;;;;;;;;4933874;29;20046;-69
2023/03/17 11:24:50;;;;;;;8.75;1.80;;;;;;;;;;4934081;29;20028;-70
2023/03/17 11:27:33;;;;;;;11.35;2.25;;;;;;;;;;4934043;29;20038;-70
2023/03/17 11:30:09;;;;;;;7.07;2.20;;;;;;;;;;4937364;29;20389;-70
2023/03/17 11:32:35;;;;;;;9.10;1.98;;;;;;;;;;4951136;29;20089;-69
2023/03/17 11:35:22;;;;;;;9.00;2.13;;;;;;;;;;4952596;29;20043;-69
2023/03/17 11:37:57;;;;;;;13.68;1.58;;;;;;;;;;4952731;29;20031;-70
2023/03/17 11:40:26;;;;;;;7.35;1.80;;;;;;;;;;4952533;29;20388;-70
2023/03/17 11:43:03;;;;;;;8.45;2.25;;;;;;;;;;4952705;29;20031;-70
2023/03/17 11:45:49;;;;;;;9.82;1.70;;;;;;;;;;4952529;29;20027;-70
2023/03/17 11:48:28;;;;;;;7.07;1.50;;;;;;;;;;4952731;29;20031;-70
2023/03/17 11:51:01;;;;;;;8.30;1.55;;;;;;;;;;4952989;29;20031;-70
2023/03/17 11:53:30;;;;;;;6.20;1.38;;;;;;;;;;4952715;29;20027;-69
2023/03/17 11:56:00;;;;;;;10.30;1.50;;;;;;;;;;4952904;29;20037;-70
2023/03/17 11:58:34;;;;;;;5.22;1.67;;;;;;;;;;4935607;29;20023;-70
2023/03/17 12:01:01;;;;;;;8.90;1.63;;;;;;;;;;4935071;29;20032;-70
2023/03/17 12:03:37;;;;;;;5.55;1.10;;;;;;;;;;4945635;29;20038;-69
2023/03/17 12:06:07;;;;;;;5.43;1.55;;;;;;;;;;4933642;29;20594;-70
2023/03/17 12:08:34;;;;;;;10.90;2.35;;;;;;;;;;4933763;29;20034;-70
2023/03/17 12:11:01;;;;;;;12.20;1.42;;;;;;;;;;4933457;29;20028;-70
2023/03/17 12:13:38;;;;;;;10.02;1.60;;;;;;;;;;4933260;29;20024;-69
2023/03/17 12:16:26;;;;;;;10.57;2.00;;;;;;;;;;4933135;29;20412;-70
2023/03/17 12:18:53;;;;;;;7.22;1.50;;;;;;;;;;4933349;29;20444;-69
2023/03/17 12:21:26;;;;;;;9.57;1.45;;;;;;;;;;4935659;29;20048;-70
2023/03/17 12:23:59;;;;;;;8.02;1.42;;;;;;;;;;4937078;29;20094;-70
2023/03/17 12:26:34;;;;;;;5.20;1.48;;;;;;;;;;4937126;29;20028;-70
2023/03/17 12:29:14;;;;;;;13.52;2.63;;;;;;;;;;4936813;29;20028;-70
2023/03/17 12:31:43;;;;;;;18.90;5.00;;;;;;;;;;4938938;29;20056;-70
2023/03/17 12:34:15;;;;;;;9.55;1.92;;;;;;;;;;4918986;29;20031;-69
2023/03/17 12:36:43;;;;;;;8.30;1.52;;;;;;;;;;4916402;29;20032;-70
2023/03/17 12:39:15;;;;;;;5.78;1.55;;;;;;;;;;4923220;29;20034;-69
2023/03/17 12:42:00;;;;;;;5.80;1.20;;;;;;;;;;4923019;29;20598;-69
2023/03/17 12:44:38;;;;;;;12.00;1.77;;;;;;;;;;4920735;29;20034;-69
2023/03/17 12:47:05;;;;;;;8.43;1.55;;;;;;;;;;4927270;29;20036;-69
2023/03/17 12:49:31;;;;;;;12.35;1.65;;;;;;;;;;4918508;29;20020;-69
2023/03/17 12:52:11;;;;;;;6.47;2.00;;;;;;;;;;4928417;29;20024;-70
2023/03/17 12:54:38;;;;;;;9.43;1.67;;;;;;;;;;4923376;29;20559;-70
2023/03/17 12:57:17;;;;;;;16.25;1.67;;;;;;;;;;4936522;29;20108;-69
2023/03/17 12:59:44;;;;;;;6.68;1.50;;;;;;;;;;4910470;29;20087;-70
2023/03/17 13:02:15;;;;;;;5.07;1.60;;;;;;;;;;4914079;29;20593;-70
2023/03/17 13:04:56;;;;;;;7.65;1.27;;;;;;;;;;4919860;29;20489;-70
2023/03/17 13:07:22;;;;;;;;;;;;;;;;;;4935615;29;20068;-70
2023/03/17 13:10:09;;;;;;;12.40;1.50;;;;;;;;;;4936664;29;19907;-70
2023/03/17 13:12:35;;;;;;;13.20;1.48;;;;;;;;;;4924702;29;20370;-70
2023/03/17 13:15:02;;;;;;;5.95;1.23;;;;;;;;;;4917204;29;20392;-70
2023/03/17 13:17:28;;;;;;;10.80;1.52;;;;;;;;;;4917188;29;20044;-70
2023/03/17 13:19:54;;;;;;;6.30;1.60;;;;;;;;;;4917350;29;20036;-70
2023/03/17 13:22:21;;;;;;;7.47;1.60;;;;;;;;;;4924701;29;20044;-70
2023/03/17 13:24:47;;;;;;;9.93;1.70;;;;;;;;;;4917388;29;20032;-70
2023/03/17 13:27:33;;;;;;;9.32;1.40;;;;;;;;;;4926905;29;20032;-70
2023/03/17 13:30:25;;;;;;;7.32;1.38;;;;;;;;;;4936005;29;20026;-69
2023/03/17 13:33:18;;;;;;;12.85;1.60;;;;;;;;;;4955005;29;20586;-70
2023/03/17 13:35:47;;;;;;;10.27;1.25;;;;;;;;;;4953841;29;20027;-70
2023/03/17 13:38:32;;;;;;;9.02;1.67;;;;;;;;;;4944367;29;20034;-70
2023/03/17 13:41:07;;;;;;;5.97;1.63;;;;;;;;;;4941814;29;20043;-69
2023/03/17 13:43:36;;;;;;;8.65;0.95;;;;;;;;;;4934162;29;20043;-69
2023/03/17 13:46:18;;;;;;;8.75;1.33;;;;;;;;;;4949497;29;20042;-69
2023/03/17 13:48:45;;;;;;;5.47;1.33;;;;;;;;;;4952122;29;20057;-70
2023/03/17 13:51:11;;;;;;;6.78;1.58;;;;;;;;;;4935851;29;20034;-70
2023/03/17 13:53:49;;;;;;;7.68;1.63;;;;;;;;;;4935556;29;20027;-69
2023/03/17 13:56:18;;;;;;;10.18;1.70;;;;;;;;;;4943039;29;20026;-69
2023/03/17 13:58:51;;;;;;;7.55;1.45;;;;;;;;;;4954543;29;20365;-70
2023/03/17 14:01:18;;;;;;;8.25;1.98;;;;;;;;;;4954391;29;20043;-70
2023/03/17 14:03:49;;;;;;;8.60;1.63;;;;;;;;;;4945153;29;20024;-69
2023/03/17 14:06:18;;;;;;;9.27;1.70;;;;;;;;;;4934037;29;20027;-70
2023/03/17 14:08:46;;;;;;;8.43;1.25;;;;;;;;;;4946455;29;20025;-70
2023/03/17 14:11:23;;;;;;;11.32;1.40;;;;;;;;;;4948967;29;20045;-69
2023/03/17 14:13:58;;;;;;;12.32;2.75;;;;;;;;;;4925004;29;20032;-69
2023/03/17 14:16:31;;;;;;;8.35;1.60;;;;;;;;;;4926157;29;20026;-70
2023/03/17 14:18:59;;;;;;;9.75;1.80;;;;;;;;;;4934945;29;20448;-70
2023/03/17 14:21:33;;;;;;;8.75;1.35;;;;;;;;;;4934974;29;20043;-70
2023/03/17 14:24:16;;;;;;;10.20;1.52;;;;;;;;;;4934454;29;20494;-70
2023/03/17 14:26:43;;;;;;;11.98;1.50;;;;;;;;;;4934664;29;20034;-70
2023/03/17 14:29:13;;;;;;;11.27;1.77;;;;;;;;;;4927734;29;20026;-70
2023/03/17 14:31:41;;;;;;;9.07;1.50;;;;;;;;;;4935180;29;20095;-70
2023/03/17 14:34:13;;;;;;;8.25;1.75;;;;;;;;;;4915595;29;20032;-70
2023/03/17 14:36:40;;;;;;;8.15;1.65;;;;;;;;;;4915826;29;20036;-70
2023/03/17 14:39:06;;;;;;;5.43;1.40;;;;;;;;;;4920528;29;20040;-70
2023/03/17 14:41:34;;;;;;;7.60;1.75;;;;;;;;;;4934336;29;20597;-70
2023/03/17 14:44:02;;;;;;;6.75;1.55;;;;;;;;;;4934202;29;20454;-70
2023/03/17 14:46:36;;;;;;;7.45;1.80;;;;;;;;;;4946348;29;20046;-69
2023/03/17 14:49:04;;;;;;;5.78;1.30;;;;;;;;;;4934375;29;20049;-70